Terminal Aerodrome Forecast
Issued by NWS

Home | Current Version | Previous Version | Graphics & Text | Print | Product List | Glossary On
Versions: 1 2 3 4 5 6 7 8 9 10 11 12 13 14 15 16 17 18
000
FTUS43 KMPX 242000 AAA
TAFRNH
TAF AMD
KRNH 242044Z 2421/2518 30018G24KT P6SM OVC020
     FM242110 31018G24KT 1 1/2SM -SN OVC018
     FM242200 31018G24KT 5SM -SN OVC020
     FM250100 31015G22KT P6SM OVC025
     FM250600 29006KT P6SM OVC030
     FM251200 25006KT P6SM SCT100=

USA.gov is the U.S. government's official web portal to all federal, state and local government web resources and services.